sensor_id;sensor_type;location;lat;lon;timestamp;P1;durP1;ratioP1;P2;durP2;ratioP2
10565;SDS011;5331;48.148;16.326;2023-07-31T00:00:05;2.58;;;2.22;;
10565;SDS011;5331;48.148;16.326;2023-07-31T00:02:33;2.33;;;2.13;;
10565;SDS011;5331;48.148;16.326;2023-07-31T00:05:00;2.05;;;1.92;;
10565;SDS011;5331;48.148;16.326;2023-07-31T00:07:29;2.00;;;1.90;;
10565;SDS011;5331;48.148;16.326;2023-07-31T00:09:56;3.45;;;2.15;;
10565;SDS011;5331;48.148;16.326;2023-07-31T00:12:23;2.47;;;1.98;;
10565;SDS011;5331;48.148;16.326;2023-07-31T00:14:50;2.05;;;1.95;;
10565;SDS011;5331;48.148;16.326;2023-07-31T00:17:17;2.60;;;2.22;;
10565;SDS011;5331;48.148;16.326;2023-07-31T00:19:44;2.15;;;2.00;;
10565;SDS011;5331;48.148;16.326;2023-07-31T00:22:14;1.98;;;1.88;;
10565;SDS011;5331;48.148;16.326;2023-07-31T00:24:42;3.17;;;2.25;;
10565;SDS011;5331;48.148;16.326;2023-07-31T00:27:09;2.17;;;2.08;;
10565;SDS011;5331;48.148;16.326;2023-07-31T00:29:36;2.30;;;2.10;;
10565;SDS011;5331;48.148;16.326;2023-07-31T00:32:03;2.20;;;2.10;;
10565;SDS011;5331;48.148;16.326;2023-07-31T00:34:31;1.98;;;1.80;;
10565;SDS011;5331;48.148;16.326;2023-07-31T00:36:58;2.00;;;1.90;;
10565;SDS011;5331;48.148;16.326;2023-07-31T00:39:24;1.92;;;1.83;;
10565;SDS011;5331;48.148;16.326;2023-07-31T00:41:53;2.30;;;2.10;;
10565;SDS011;5331;48.148;16.326;2023-07-31T00:44:20;2.13;;;1.90;;
10565;SDS011;5331;48.148;16.326;2023-07-31T00:46:46;2.33;;;1.73;;
10565;SDS011;5331;48.148;16.326;2023-07-31T00:49:13;2.10;;;2.00;;
10565;SDS011;5331;48.148;16.326;2023-07-31T00:51:41;1.90;;;1.80;;
10565;SDS011;5331;48.148;16.326;2023-07-31T00:54:09;2.00;;;1.90;;
10565;SDS011;5331;48.148;16.326;2023-07-31T00:56:36;1.95;;;1.85;;
10565;SDS011;5331;48.148;16.326;2023-07-31T00:59:06;2.00;;;1.90;;
10565;SDS011;5331;48.148;16.326;2023-07-31T01:01:33;2.08;;;1.90;;
10565;SDS011;5331;48.148;16.326;2023-07-31T01:03:59;2.47;;;2.35;;
10565;SDS011;5331;48.148;16.326;2023-07-31T01:06:29;2.47;;;2.20;;
10565;SDS011;5331;48.148;16.326;2023-07-31T01:09:02;2.05;;;1.90;;
10565;SDS011;5331;48.148;16.326;2023-07-31T01:11:33;2.28;;;1.98;;
10565;SDS011;5331;48.148;16.326;2023-07-31T01:14:05;2.45;;;2.25;;
10565;SDS011;5331;48.148;16.326;2023-07-31T01:16:32;1.88;;;1.77;;
10565;SDS011;5331;48.148;16.326;2023-07-31T01:19:00;2.13;;;1.92;;
10565;SDS011;5331;48.148;16.326;2023-07-31T01:21:34;2.17;;;2.00;;
10565;SDS011;5331;48.148;16.326;2023-07-31T01:24:22;2.40;;;2.15;;
10565;SDS011;5331;48.148;16.326;2023-07-31T01:26:55;2.08;;;1.98;;
10565;SDS011;5331;48.148;16.326;2023-07-31T01:29:29;2.03;;;1.92;;
10565;SDS011;5331;48.148;16.326;2023-07-31T01:32:03;1.85;;;1.70;;
10565;SDS011;5331;48.148;16.326;2023-07-31T01:34:32;1.90;;;1.80;;
10565;SDS011;5331;48.148;16.326;2023-07-31T01:37:00;2.00;;;1.90;;
10565;SDS011;5331;48.148;16.326;2023-07-31T01:39:27;2.63;;;1.90;;
10565;SDS011;5331;48.148;16.326;2023-07-31T01:41:55;2.22;;;2.10;;
10565;SDS011;5331;48.148;16.326;2023-07-31T01:44:22;2.20;;;2.10;;
10565;SDS011;5331;48.148;16.326;2023-07-31T01:46:49;3.90;;;1.95;;
10565;SDS011;5331;48.148;16.326;2023-07-31T01:49:15;2.17;;;1.95;;
10565;SDS011;5331;48.148;16.326;2023-07-31T01:51:42;2.95;;;2.20;;
10565;SDS011;5331;48.148;16.326;2023-07-31T01:54:09;3.60;;;2.20;;
10565;SDS011;5331;48.148;16.326;2023-07-31T01:56:36;2.17;;;2.03;;
10565;SDS011;5331;48.148;16.326;2023-07-31T01:59:04;2.28;;;2.08;;
10565;SDS011;5331;48.148;16.326;2023-07-31T02:01:31;3.97;;;1.95;;
10565;SDS011;5331;48.148;16.326;2023-07-31T02:03:58;2.10;;;1.90;;
10565;SDS011;5331;48.148;16.326;2023-07-31T02:06:25;2.30;;;2.10;;
10565;SDS011;5331;48.148;16.326;2023-07-31T02:08:52;2.10;;;1.90;;
10565;SDS011;5331;48.148;16.326;2023-07-31T02:11:19;2.40;;;2.20;;
10565;SDS011;5331;48.148;16.326;2023-07-31T02:13:45;2.22;;;2.00;;
10565;SDS011;5331;48.148;16.326;2023-07-31T02:16:14;2.22;;;2.13;;
10565;SDS011;5331;48.148;16.326;2023-07-31T02:18:41;2.42;;;1.83;;
10565;SDS011;5331;48.148;16.326;2023-07-31T02:21:07;2.17;;;1.98;;
10565;SDS011;5331;48.148;16.326;2023-07-31T02:23:34;2.10;;;2.00;;
10565;SDS011;5331;48.148;16.326;2023-07-31T02:26:01;2.00;;;1.80;;
10565;SDS011;5331;48.148;16.326;2023-07-31T02:28:28;2.00;;;1.90;;
10565;SDS011;5331;48.148;16.326;2023-07-31T02:30:56;2.80;;;2.50;;
10565;SDS011;5331;48.148;16.326;2023-07-31T02:33:24;2.50;;;2.00;;
10565;SDS011;5331;48.148;16.326;2023-07-31T02:35:51;2.58;;;2.30;;
10565;SDS011;5331;48.148;16.326;2023-07-31T02:38:18;2.92;;;2.00;;
10565;SDS011;5331;48.148;16.326;2023-07-31T02:40:44;2.83;;;2.00;;
10565;SDS011;5331;48.148;16.326;2023-07-31T02:43:11;2.20;;;1.90;;
10565;SDS011;5331;48.148;16.326;2023-07-31T02:45:38;2.75;;;2.00;;
10565;SDS011;5331;48.148;16.326;2023-07-31T02:48:05;2.22;;;2.00;;
10565;SDS011;5331;48.148;16.326;2023-07-31T02:50:33;2.78;;;2.08;;
10565;SDS011;5331;48.148;16.326;2023-07-31T02:53:00;2.47;;;2.28;;
10565;SDS011;5331;48.148;16.326;2023-07-31T02:55:27;2.55;;;2.17;;
10565;SDS011;5331;48.148;16.326;2023-07-31T02:57:56;1.90;;;1.80;;
10565;SDS011;5331;48.148;16.326;2023-07-31T03:00:24;2.28;;;2.08;;
10565;SDS011;5331;48.148;16.326;2023-07-31T03:02:50;2.15;;;2.03;;
10565;SDS011;5331;48.148;16.326;2023-07-31T03:05:17;2.05;;;1.95;;
10565;SDS011;5331;48.148;16.326;2023-07-31T03:07:45;2.60;;;2.40;;
10565;SDS011;5331;48.148;16.326;2023-07-31T03:10:13;2.20;;;2.10;;
10565;SDS011;5331;48.148;16.326;2023-07-31T03:12:40;2.20;;;2.03;;
10565;SDS011;5331;48.148;16.326;2023-07-31T03:15:08;2.13;;;1.95;;
10565;SDS011;5331;48.148;16.326;2023-07-31T03:17:35;2.38;;;2.17;;
10565;SDS011;5331;48.148;16.326;2023-07-31T03:20:03;2.00;;;1.90;;
10565;SDS011;5331;48.148;16.326;2023-07-31T03:22:30;2.20;;;2.00;;
10565;SDS011;5331;48.148;16.326;2023-07-31T03:24:58;2.00;;;1.90;;
10565;SDS011;5331;48.148;16.326;2023-07-31T03:27:25;2.22;;;2.13;;
10565;SDS011;5331;48.148;16.326;2023-07-31T03:29:52;2.25;;;2.05;;
10565;SDS011;5331;48.148;16.326;2023-07-31T03:32:19;2.17;;;2.03;;
10565;SDS011;5331;48.148;16.326;2023-07-31T03:34:45;2.90;;;2.60;;
10565;SDS011;5331;48.148;16.326;2023-07-31T03:37:12;2.50;;;2.20;;
10565;SDS011;5331;48.148;16.326;2023-07-31T03:39:39;2.35;;;2.20;;
10565;SDS011;5331;48.148;16.326;2023-07-31T03:42:07;3.55;;;2.63;;
10565;SDS011;5331;48.148;16.326;2023-07-31T03:44:34;2.30;;;2.20;;
10565;SDS011;5331;48.148;16.326;2023-07-31T03:47:01;2.53;;;2.33;;
10565;SDS011;5331;48.148;16.326;2023-07-31T03:49:28;2.65;;;2.45;;
10565;SDS011;5331;48.148;16.326;2023-07-31T03:51:55;3.05;;;2.75;;
10565;SDS011;5331;48.148;16.326;2023-07-31T03:54:22;2.60;;;2.38;;
10565;SDS011;5331;48.148;16.326;2023-07-31T03:56:49;2.63;;;2.42;;
10565;SDS011;5331;48.148;16.326;2023-07-31T03:59:17;2.90;;;2.63;;
10565;SDS011;5331;48.148;16.326;2023-07-31T04:01:44;3.22;;;2.65;;
10565;SDS011;5331;48.148;16.326;2023-07-31T04:04:11;2.72;;;2.53;;
10565;SDS011;5331;48.148;16.326;2023-07-31T04:06:37;2.83;;;2.55;;
10565;SDS011;5331;48.148;16.326;2023-07-31T04:09:04;3.00;;;2.80;;
10565;SDS011;5331;48.148;16.326;2023-07-31T04:11:31;2.90;;;2.70;;
10565;SDS011;5331;48.148;16.326;2023-07-31T04:13:58;3.35;;;2.80;;
10565;SDS011;5331;48.148;16.326;2023-07-31T04:16:26;2.97;;;2.42;;
10565;SDS011;5331;48.148;16.326;2023-07-31T04:18:53;3.92;;;2.90;;
10565;SDS011;5331;48.148;16.326;2023-07-31T04:21:20;4.10;;;3.03;;
10565;SDS011;5331;48.148;16.326;2023-07-31T04:23:47;3.28;;;2.97;;
10565;SDS011;5331;48.148;16.326;2023-07-31T04:26:14;3.70;;;3.08;;
10565;SDS011;5331;48.148;16.326;2023-07-31T04:28:41;4.53;;;3.65;;
10565;SDS011;5331;48.148;16.326;2023-07-31T04:31:07;4.35;;;3.95;;
10565;SDS011;5331;48.148;16.326;2023-07-31T04:33:36;6.65;;;4.15;;
10565;SDS011;5331;48.148;16.326;2023-07-31T04:36:03;4.50;;;3.92;;
10565;SDS011;5331;48.148;16.326;2023-07-31T04:38:31;4.07;;;3.67;;
10565;SDS011;5331;48.148;16.326;2023-07-31T04:40:57;3.95;;;3.50;;
10565;SDS011;5331;48.148;16.326;2023-07-31T04:43:24;3.70;;;3.40;;
10565;SDS011;5331;48.148;16.326;2023-07-31T04:45:51;4.90;;;2.75;;
10565;SDS011;5331;48.148;16.326;2023-07-31T04:48:19;3.90;;;3.45;;
10565;SDS011;5331;48.148;16.326;2023-07-31T04:50:47;3.58;;;2.55;;
10565;SDS011;5331;48.148;16.326;2023-07-31T04:53:14;3.40;;;2.78;;
10565;SDS011;5331;48.148;16.326;2023-07-31T04:55:41;3.75;;;2.90;;
10565;SDS011;5331;48.148;16.326;2023-07-31T04:58:09;3.72;;;2.58;;
10565;SDS011;5331;48.148;16.326;2023-07-31T05:00:36;2.88;;;2.67;;
10565;SDS011;5331;48.148;16.326;2023-07-31T05:03:03;2.80;;;2.60;;
10565;SDS011;5331;48.148;16.326;2023-07-31T05:05:30;4.75;;;3.10;;
10565;SDS011;5331;48.148;16.326;2023-07-31T05:07:58;3.22;;;2.92;;
10565;SDS011;5331;48.148;16.326;2023-07-31T05:10:27;3.60;;;3.30;;
10565;SDS011;5331;48.148;16.326;2023-07-31T05:12:54;3.40;;;2.85;;
10565;SDS011;5331;48.148;16.326;2023-07-31T05:15:22;2.95;;;2.63;;
10565;SDS011;5331;48.148;16.326;2023-07-31T05:17:49;5.35;;;2.65;;
10565;SDS011;5331;48.148;16.326;2023-07-31T05:20:16;2.80;;;2.60;;
10565;SDS011;5331;48.148;16.326;2023-07-31T05:22:43;2.67;;;2.35;;
10565;SDS011;5331;48.148;16.326;2023-07-31T05:25:14;2.80;;;2.60;;
10565;SDS011;5331;48.148;16.326;2023-07-31T05:27:42;2.83;;;2.53;;
10565;SDS011;5331;48.148;16.326;2023-07-31T05:30:08;2.58;;;2.30;;
10565;SDS011;5331;48.148;16.326;2023-07-31T05:32:35;2.40;;;2.20;;
10565;SDS011;5331;48.148;16.326;2023-07-31T05:35:03;2.60;;;2.40;;
10565;SDS011;5331;48.148;16.326;2023-07-31T05:37:30;2.97;;;2.67;;
10565;SDS011;5331;48.148;16.326;2023-07-31T05:39:57;2.70;;;2.50;;
10565;SDS011;5331;48.148;16.326;2023-07-31T05:42:26;3.00;;;2.58;;
10565;SDS011;5331;48.148;16.326;2023-07-31T05:44:53;2.65;;;2.45;;
10565;SDS011;5331;48.148;16.326;2023-07-31T05:47:20;3.05;;;2.60;;
10565;SDS011;5331;48.148;16.326;2023-07-31T05:49:46;2.50;;;2.30;;
10565;SDS011;5331;48.148;16.326;2023-07-31T05:52:14;2.65;;;2.40;;
10565;SDS011;5331;48.148;16.326;2023-07-31T05:54:41;2.80;;;2.50;;
10565;SDS011;5331;48.148;16.326;2023-07-31T05:57:08;2.72;;;2.50;;
10565;SDS011;5331;48.148;16.326;2023-07-31T05:59:36;3.28;;;2.50;;
10565;SDS011;5331;48.148;16.326;2023-07-31T06:02:03;3.15;;;2.35;;
10565;SDS011;5331;48.148;16.326;2023-07-31T06:04:31;2.63;;;2.42;;
10565;SDS011;5331;48.148;16.326;2023-07-31T06:06:58;3.15;;;2.70;;
10565;SDS011;5331;48.148;16.326;2023-07-31T06:09:25;3.38;;;2.50;;
10565;SDS011;5331;48.148;16.326;2023-07-31T06:11:52;3.38;;;2.47;;
10565;SDS011;5331;48.148;16.326;2023-07-31T06:14:19;3.55;;;2.15;;
10565;SDS011;5331;48.148;16.326;2023-07-31T06:16:48;2.40;;;2.20;;
10565;SDS011;5331;48.148;16.326;2023-07-31T06:19:15;2.70;;;2.30;;
10565;SDS011;5331;48.148;16.326;2023-07-31T06:21:42;2.92;;;2.30;;
10565;SDS011;5331;48.148;16.326;2023-07-31T06:24:09;2.47;;;2.25;;
10565;SDS011;5331;48.148;16.326;2023-07-31T06:26:37;2.75;;;2.08;;
10565;SDS011;5331;48.148;16.326;2023-07-31T06:29:04;3.33;;;2.33;;
10565;SDS011;5331;48.148;16.326;2023-07-31T06:31:31;2.80;;;2.30;;
10565;SDS011;5331;48.148;16.326;2023-07-31T06:33:59;2.28;;;2.08;;
10565;SDS011;5331;48.148;16.326;2023-07-31T06:36:26;2.75;;;2.17;;
10565;SDS011;5331;48.148;16.326;2023-07-31T06:38:53;2.95;;;2.15;;
10565;SDS011;5331;48.148;16.326;2023-07-31T06:41:20;2.15;;;1.95;;
10565;SDS011;5331;48.148;16.326;2023-07-31T06:43:47;2.88;;;2.05;;
10565;SDS011;5331;48.148;16.326;2023-07-31T06:46:14;3.20;;;2.05;;
10565;SDS011;5331;48.148;16.326;2023-07-31T06:48:44;2.35;;;1.70;;
10565;SDS011;5331;48.148;16.326;2023-07-31T06:51:12;2.60;;;2.00;;
10565;SDS011;5331;48.148;16.326;2023-07-31T06:53:39;2.00;;;1.90;;
10565;SDS011;5331;48.148;16.326;2023-07-31T06:56:06;3.80;;;1.95;;
10565;SDS011;5331;48.148;16.326;2023-07-31T06:58:33;2.20;;;1.70;;
10565;SDS011;5331;48.148;16.326;2023-07-31T07:01:00;2.90;;;1.90;;
10565;SDS011;5331;48.148;16.326;2023-07-31T07:03:27;2.10;;;1.92;;
10565;SDS011;5331;48.148;16.326;2023-07-31T07:05:54;5.03;;;1.98;;
10565;SDS011;5331;48.148;16.326;2023-07-31T07:08:23;3.88;;;1.85;;
10565;SDS011;5331;48.148;16.326;2023-07-31T07:10:50;2.92;;;2.10;;
10565;SDS011;5331;48.148;16.326;2023-07-31T07:13:17;3.20;;;1.90;;
10565;SDS011;5331;48.148;16.326;2023-07-31T07:15:47;3.75;;;2.10;;
10565;SDS011;5331;48.148;16.326;2023-07-31T07:18:14;3.15;;;2.03;;
10565;SDS011;5331;48.148;16.326;2023-07-31T07:20:45;2.40;;;1.70;;
10565;SDS011;5331;48.148;16.326;2023-07-31T07:23:13;3.28;;;1.80;;
10565;SDS011;5331;48.148;16.326;2023-07-31T07:25:41;2.92;;;1.80;;
10565;SDS011;5331;48.148;16.326;2023-07-31T07:28:08;3.60;;;1.77;;
10565;SDS011;5331;48.148;16.326;2023-07-31T07:30:35;3.10;;;1.80;;
10565;SDS011;5331;48.148;16.326;2023-07-31T07:33:02;2.25;;;1.92;;
10565;SDS011;5331;48.148;16.326;2023-07-31T07:35:32;3.30;;;2.13;;
10565;SDS011;5331;48.148;16.326;2023-07-31T07:38:00;2.03;;;1.90;;
10565;SDS011;5331;48.148;16.326;2023-07-31T07:40:26;2.08;;;1.88;;
10565;SDS011;5331;48.148;16.326;2023-07-31T07:42:55;3.75;;;1.98;;
10565;SDS011;5331;48.148;16.326;2023-07-31T07:45:22;3.45;;;2.13;;
10565;SDS011;5331;48.148;16.326;2023-07-31T07:47:48;4.03;;;2.13;;
10565;SDS011;5331;48.148;16.326;2023-07-31T07:50:16;3.33;;;2.08;;
10565;SDS011;5331;48.148;16.326;2023-07-31T07:52:43;2.75;;;1.80;;
10565;SDS011;5331;48.148;16.326;2023-07-31T07:55:09;3.42;;;1.90;;
10565;SDS011;5331;48.148;16.326;2023-07-31T07:57:36;2.22;;;2.03;;
10565;SDS011;5331;48.148;16.326;2023-07-31T08:00:06;3.13;;;2.20;;
10565;SDS011;5331;48.148;16.326;2023-07-31T08:02:35;3.40;;;2.05;;
10565;SDS011;5331;48.148;16.326;2023-07-31T08:05:02;3.22;;;2.00;;
10565;SDS011;5331;48.148;16.326;2023-07-31T08:07:29;2.83;;;1.83;;
10565;SDS011;5331;48.148;16.326;2023-07-31T08:09:56;3.03;;;2.00;;
10565;SDS011;5331;48.148;16.326;2023-07-31T08:12:23;2.60;;;1.85;;
10565;SDS011;5331;48.148;16.326;2023-07-31T08:14:50;2.05;;;1.75;;
10565;SDS011;5331;48.148;16.326;2023-07-31T08:17:18;2.95;;;2.00;;
10565;SDS011;5331;48.148;16.326;2023-07-31T08:19:45;3.85;;;2.20;;
10565;SDS011;5331;48.148;16.326;2023-07-31T08:22:12;4.80;;;1.98;;
10565;SDS011;5331;48.148;16.326;2023-07-31T08:24:39;3.15;;;1.90;;
10565;SDS011;5331;48.148;16.326;2023-07-31T08:27:06;2.40;;;1.80;;
10565;SDS011;5331;48.148;16.326;2023-07-31T08:29:33;2.90;;;1.90;;
10565;SDS011;5331;48.148;16.326;2023-07-31T08:32:00;2.95;;;1.98;;
10565;SDS011;5331;48.148;16.326;2023-07-31T08:34:28;2.78;;;2.00;;
10565;SDS011;5331;48.148;16.326;2023-07-31T08:36:55;2.45;;;1.70;;
10565;SDS011;5331;48.148;16.326;2023-07-31T08:39:22;4.32;;;1.70;;
10565;SDS011;5331;48.148;16.326;2023-07-31T08:41:49;2.10;;;1.90;;
10565;SDS011;5331;48.148;16.326;2023-07-31T08:44:16;2.05;;;1.95;;
10565;SDS011;5331;48.148;16.326;2023-07-31T08:46:44;4.60;;;2.17;;
10565;SDS011;5331;48.148;16.326;2023-07-31T08:49:12;2.55;;;1.90;;
10565;SDS011;5331;48.148;16.326;2023-07-31T08:51:41;4.10;;;1.98;;
10565;SDS011;5331;48.148;16.326;2023-07-31T08:54:08;2.40;;;1.95;;
10565;SDS011;5331;48.148;16.326;2023-07-31T08:56:35;2.78;;;1.90;;
10565;SDS011;5331;48.148;16.326;2023-07-31T08:59:03;3.40;;;1.70;;
10565;SDS011;5331;48.148;16.326;2023-07-31T09:01:30;2.03;;;1.83;;
10565;SDS011;5331;48.148;16.326;2023-07-31T09:04:03;1.75;;;1.65;;
10565;SDS011;5331;48.148;16.326;2023-07-31T09:06:31;2.13;;;1.80;;
10565;SDS011;5331;48.148;16.326;2023-07-31T09:09:01;2.95;;;2.00;;
10565;SDS011;5331;48.148;16.326;2023-07-31T09:11:28;2.50;;;1.70;;
10565;SDS011;5331;48.148;16.326;2023-07-31T09:13:56;3.33;;;2.10;;
10565;SDS011;5331;48.148;16.326;2023-07-31T09:16:27;3.53;;;1.90;;
10565;SDS011;5331;48.148;16.326;2023-07-31T09:18:57;3.03;;;2.20;;
10565;SDS011;5331;48.148;16.326;2023-07-31T09:21:26;3.40;;;1.90;;
10565;SDS011;5331;48.148;16.326;2023-07-31T09:23:53;3.13;;;2.00;;
10565;SDS011;5331;48.148;16.326;2023-07-31T09:26:32;2.45;;;1.92;;
10565;SDS011;5331;48.148;16.326;2023-07-31T09:29:01;2.88;;;1.88;;
10565;SDS011;5331;48.148;16.326;2023-07-31T09:31:38;2.75;;;1.92;;
10565;SDS011;5331;48.148;16.326;2023-07-31T09:34:06;2.63;;;2.20;;
10565;SDS011;5331;48.148;16.326;2023-07-31T09:36:38;4.82;;;1.80;;
10565;SDS011;5331;48.148;16.326;2023-07-31T09:39:07;2.47;;;2.05;;
10565;SDS011;5331;48.148;16.326;2023-07-31T09:41:37;2.15;;;1.73;;
10565;SDS011;5331;48.148;16.326;2023-07-31T09:44:05;2.05;;;1.70;;
10565;SDS011;5331;48.148;16.326;2023-07-31T09:46:34;2.90;;;1.88;;
10565;SDS011;5331;48.148;16.326;2023-07-31T09:49:08;2.55;;;1.88;;
10565;SDS011;5331;48.148;16.326;2023-07-31T09:51:36;2.28;;;1.90;;
10565;SDS011;5331;48.148;16.326;2023-07-31T09:54:08;3.60;;;1.90;;
10565;SDS011;5331;48.148;16.326;2023-07-31T09:56:38;2.08;;;1.70;;
10565;SDS011;5331;48.148;16.326;2023-07-31T09:59:10;2.92;;;1.80;;
10565;SDS011;5331;48.148;16.326;2023-07-31T10:01:39;2.53;;;2.25;;
10565;SDS011;5331;48.148;16.326;2023-07-31T10:04:07;2.03;;;1.83;;
10565;SDS011;5331;48.148;16.326;2023-07-31T10:06:35;1.63;;;1.52;;
10565;SDS011;5331;48.148;16.326;2023-07-31T10:09:03;2.05;;;1.85;;
10565;SDS011;5331;48.148;16.326;2023-07-31T10:11:37;2.92;;;1.85;;
10565;SDS011;5331;48.148;16.326;2023-07-31T10:14:09;2.40;;;1.80;;
10565;SDS011;5331;48.148;16.326;2023-07-31T10:16:37;2.20;;;1.70;;
10565;SDS011;5331;48.148;16.326;2023-07-31T10:19:05;2.72;;;1.85;;
10565;SDS011;5331;48.148;16.326;2023-07-31T10:21:33;2.03;;;1.90;;
10565;SDS011;5331;48.148;16.326;2023-07-31T10:24:02;2.58;;;2.10;;
10565;SDS011;5331;48.148;16.326;2023-07-31T10:26:31;2.88;;;1.95;;
10565;SDS011;5331;48.148;16.326;2023-07-31T10:28:59;1.80;;;1.65;;
10565;SDS011;5331;48.148;16.326;2023-07-31T10:31:27;2.22;;;1.73;;
10565;SDS011;5331;48.148;16.326;2023-07-31T10:33:54;2.90;;;1.85;;
10565;SDS011;5331;48.148;16.326;2023-07-31T10:36:23;3.95;;;2.10;;
10565;SDS011;5331;48.148;16.326;2023-07-31T10:38:50;2.60;;;1.65;;
10565;SDS011;5331;48.148;16.326;2023-07-31T10:41:17;3.15;;;1.58;;
10565;SDS011;5331;48.148;16.326;2023-07-31T10:43:45;2.15;;;1.95;;
10565;SDS011;5331;48.148;16.326;2023-07-31T10:46:13;3.60;;;1.90;;
10565;SDS011;5331;48.148;16.326;2023-07-31T10:48:41;2.47;;;1.90;;
10565;SDS011;5331;48.148;16.326;2023-07-31T10:51:09;2.60;;;1.85;;
10565;SDS011;5331;48.148;16.326;2023-07-31T10:53:37;3.22;;;1.90;;
10565;SDS011;5331;48.148;16.326;2023-07-31T10:56:05;1.77;;;1.67;;
10565;SDS011;5331;48.148;16.326;2023-07-31T10:58:33;2.85;;;1.83;;
10565;SDS011;5331;48.148;16.326;2023-07-31T11:01:01;2.22;;;1.95;;
10565;SDS011;5331;48.148;16.326;2023-07-31T11:03:43;2.13;;;1.60;;
10565;SDS011;5331;48.148;16.326;2023-07-31T11:06:12;3.40;;;1.80;;
10565;SDS011;5331;48.148;16.326;2023-07-31T11:08:43;3.25;;;2.10;;
10565;SDS011;5331;48.148;16.326;2023-07-31T11:11:11;2.13;;;1.92;;
10565;SDS011;5331;48.148;16.326;2023-07-31T11:13:40;2.58;;;1.83;;
10565;SDS011;5331;48.148;16.326;2023-07-31T11:16:08;1.77;;;1.67;;
10565;SDS011;5331;48.148;16.326;2023-07-31T11:18:38;3.35;;;1.88;;
10565;SDS011;5331;48.148;16.326;2023-07-31T11:21:07;1.75;;;1.65;;
10565;SDS011;5331;48.148;16.326;2023-07-31T11:23:36;2.35;;;1.90;;
10565;SDS011;5331;48.148;16.326;2023-07-31T11:26:04;2.30;;;1.90;;
10565;SDS011;5331;48.148;16.326;2023-07-31T11:28:33;1.80;;;1.70;;
10565;SDS011;5331;48.148;16.326;2023-07-31T11:31:00;1.80;;;1.70;;
10565;SDS011;5331;48.148;16.326;2023-07-31T11:33:28;2.15;;;1.67;;
10565;SDS011;5331;48.148;16.326;2023-07-31T11:35:58;2.67;;;1.83;;
10565;SDS011;5331;48.148;16.326;2023-07-31T11:38:27;2.03;;;1.60;;
10565;SDS011;5331;48.148;16.326;2023-07-31T11:40:55;3.47;;;1.90;;
10565;SDS011;5331;48.148;16.326;2023-07-31T11:43:23;1.88;;;1.77;;
10565;SDS011;5331;48.148;16.326;2023-07-31T11:45:52;2.10;;;1.80;;
10565;SDS011;5331;48.148;16.326;2023-07-31T11:48:21;2.35;;;1.95;;
10565;SDS011;5331;48.148;16.326;2023-07-31T11:50:49;2.35;;;1.80;;
10565;SDS011;5331;48.148;16.326;2023-07-31T11:53:19;1.77;;;1.67;;
10565;SDS011;5331;48.148;16.326;2023-07-31T11:55:51;3.60;;;2.00;;
10565;SDS011;5331;48.148;16.326;2023-07-31T11:58:19;2.03;;;1.80;;
10565;SDS011;5331;48.148;16.326;2023-07-31T12:00:46;2.03;;;1.83;;
10565;SDS011;5331;48.148;16.326;2023-07-31T12:03:14;1.95;;;1.85;;
10565;SDS011;5331;48.148;16.326;2023-07-31T12:05:41;2.05;;;1.80;;
10565;SDS011;5331;48.148;16.326;2023-07-31T12:08:09;2.38;;;2.10;;
10565;SDS011;5331;48.148;16.326;2023-07-31T12:10:37;2.42;;;1.83;;
10565;SDS011;5331;48.148;16.326;2023-07-31T12:13:07;2.10;;;1.90;;
10565;SDS011;5331;48.148;16.326;2023-07-31T12:15:39;1.90;;;1.80;;
10565;SDS011;5331;48.148;16.326;2023-07-31T12:18:07;3.15;;;1.80;;
10565;SDS011;5331;48.148;16.326;2023-07-31T12:20:39;4.47;;;2.00;;
10565;SDS011;5331;48.148;16.326;2023-07-31T12:23:12;2.17;;;1.98;;
10565;SDS011;5331;48.148;16.326;2023-07-31T12:25:40;2.13;;;1.92;;
10565;SDS011;5331;48.148;16.326;2023-07-31T12:28:09;2.58;;;1.70;;
10565;SDS011;5331;48.148;16.326;2023-07-31T12:30:38;2.67;;;2.00;;
10565;SDS011;5331;48.148;16.326;2023-07-31T12:33:12;2.10;;;1.90;;
10565;SDS011;5331;48.148;16.326;2023-07-31T12:35:41;3.22;;;2.20;;
10565;SDS011;5331;48.148;16.326;2023-07-31T12:38:11;2.30;;;2.10;;
10565;SDS011;5331;48.148;16.326;2023-07-31T12:40:38;2.03;;;1.90;;
10565;SDS011;5331;48.148;16.326;2023-07-31T12:43:05;1.90;;;1.80;;
10565;SDS011;5331;48.148;16.326;2023-07-31T12:45:34;3.10;;;2.10;;
10565;SDS011;5331;48.148;16.326;2023-07-31T12:48:01;2.20;;;1.80;;
10565;SDS011;5331;48.148;16.326;2023-07-31T12:50:28;2.35;;;2.00;;
10565;SDS011;5331;48.148;16.326;2023-07-31T12:52:55;2.13;;;1.90;;
10565;SDS011;5331;48.148;16.326;2023-07-31T12:55:22;2.30;;;2.10;;
10565;SDS011;5331;48.148;16.326;2023-07-31T12:57:49;2.20;;;2.00;;
10565;SDS011;5331;48.148;16.326;2023-07-31T13:00:16;2.35;;;2.13;;
10565;SDS011;5331;48.148;16.326;2023-07-31T13:02:45;2.75;;;2.25;;
10565;SDS011;5331;48.148;16.326;2023-07-31T13:05:12;2.30;;;2.10;;
10565;SDS011;5331;48.148;16.326;2023-07-31T13:07:39;2.40;;;2.00;;
10565;SDS011;5331;48.148;16.326;2023-07-31T13:10:07;2.58;;;2.20;;
10565;SDS011;5331;48.148;16.326;2023-07-31T13:12:34;1.98;;;1.88;;
10565;SDS011;5331;48.148;16.326;2023-07-31T13:15:01;2.67;;;2.28;;
10565;SDS011;5331;48.148;16.326;2023-07-31T13:17:30;2.40;;;2.20;;
10565;SDS011;5331;48.148;16.326;2023-07-31T13:19:59;2.05;;;1.95;;
10565;SDS011;5331;48.148;16.326;2023-07-31T13:22:27;3.00;;;1.95;;
10565;SDS011;5331;48.148;16.326;2023-07-31T13:24:54;2.10;;;1.90;;
10565;SDS011;5331;48.148;16.326;2023-07-31T13:27:21;2.22;;;2.00;;
10565;SDS011;5331;48.148;16.326;2023-07-31T13:29:48;2.08;;;1.95;;
10565;SDS011;5331;48.148;16.326;2023-07-31T13:32:15;2.40;;;2.15;;
10565;SDS011;5331;48.148;16.326;2023-07-31T13:34:43;2.00;;;1.90;;
10565;SDS011;5331;48.148;16.326;2023-07-31T13:37:11;2.60;;;2.30;;
10565;SDS011;5331;48.148;16.326;2023-07-31T13:39:39;2.67;;;2.10;;
10565;SDS011;5331;48.148;16.326;2023-07-31T13:42:06;2.20;;;2.10;;
10565;SDS011;5331;48.148;16.326;2023-07-31T13:44:34;2.20;;;2.10;;
10565;SDS011;5331;48.148;16.326;2023-07-31T13:47:01;2.50;;;2.30;;
10565;SDS011;5331;48.148;16.326;2023-07-31T13:49:29;2.22;;;2.05;;
10565;SDS011;5331;48.148;16.326;2023-07-31T13:51:56;2.58;;;2.13;;
10565;SDS011;5331;48.148;16.326;2023-07-31T13:54:25;2.10;;;2.00;;
10565;SDS011;5331;48.148;16.326;2023-07-31T13:56:52;2.10;;;2.00;;
10565;SDS011;5331;48.148;16.326;2023-07-31T13:59:19;2.83;;;2.10;;
10565;SDS011;5331;48.148;16.326;2023-07-31T14:01:46;2.20;;;2.10;;
10565;SDS011;5331;48.148;16.326;2023-07-31T14:04:14;2.20;;;2.00;;
10565;SDS011;5331;48.148;16.326;2023-07-31T14:06:40;2.20;;;2.10;;
10565;SDS011;5331;48.148;16.326;2023-07-31T14:09:07;4.03;;;2.20;;
10565;SDS011;5331;48.148;16.326;2023-07-31T14:11:35;2.15;;;2.03;;
10565;SDS011;5331;48.148;16.326;2023-07-31T14:14:02;2.22;;;2.03;;
10565;SDS011;5331;48.148;16.326;2023-07-31T14:16:29;2.38;;;2.05;;
10565;SDS011;5331;48.148;16.326;2023-07-31T14:18:56;2.30;;;2.17;;
10565;SDS011;5331;48.148;16.326;2023-07-31T14:21:24;2.10;;;2.00;;
10565;SDS011;5331;48.148;16.326;2023-07-31T14:23:51;2.42;;;2.22;;
10565;SDS011;5331;48.148;16.326;2023-07-31T14:26:18;2.50;;;2.30;;
10565;SDS011;5331;48.148;16.326;2023-07-31T14:28:47;2.35;;;2.15;;
10565;SDS011;5331;48.148;16.326;2023-07-31T14:31:28;2.50;;;2.30;;
10565;SDS011;5331;48.148;16.326;2023-07-31T14:33:56;2.40;;;2.20;;
10565;SDS011;5331;48.148;16.326;2023-07-31T14:36:27;2.50;;;2.30;;
10565;SDS011;5331;48.148;16.326;2023-07-31T14:38:56;2.40;;;2.20;;
10565;SDS011;5331;48.148;16.326;2023-07-31T14:41:23;2.40;;;2.20;;
10565;SDS011;5331;48.148;16.326;2023-07-31T14:46:35;2.35;;;2.15;;
10565;SDS011;5331;48.148;16.326;2023-07-31T14:49:03;2.50;;;2.28;;
10565;SDS011;5331;48.148;16.326;2023-07-31T14:51:30;2.38;;;2.17;;
10565;SDS011;5331;48.148;16.326;2023-07-31T14:53:57;2.28;;;2.08;;